Time;durP1;ratioP1;P1;durP2;ratioP2;P2;SDS_P1;SDS_P2;PMS_P1;PMS_P2;Temp;Humidity;BMP_temperature;BMP_pressure;BME280_temperature;BME280_humidity;BME280_pressure;Samples;Min_cycle;Max_cycle;Signal;HPM_P1;HPM_P2
2021/04/02 04:45:17;;;;;;;7.75;3.60;;;;;;;;;;6193902;22;884875;-80
2021/04/02 04:47:42;;;;;;;8.52;4.50;;;;;;;;;;6213539;23;20423;-80
2021/04/02 04:50:08;;;;;;;10.20;4.75;;;;;;;;;;6215537;23;20036;-80
2021/04/02 04:52:37;;;;;;;13.23;5.88;;;;;;;;;;6213443;23;20029;-80
2021/04/02 04:55:04;;;;;;;7.57;4.43;;;;;;;;;;6214638;23;19996;-80
2021/04/02 04:57:31;;;;;;;9.45;4.53;;;;;;;;;;6214521;23;20009;-80
2021/04/02 04:59:57;;;;;;;9.10;3.90;;;;;;;;;;6215335;23;20001;-80
2021/04/02 05:02:23;;;;;;;11.07;5.30;;;;;;;;;;6214780;23;20005;-80
2021/04/02 05:04:50;;;;;;;11.52;5.15;;;;;;;;;;6216182;23;20076;-80
2021/04/02 05:07:16;;;;;;;9.93;5.10;;;;;;;;;;6215621;23;20000;-80
2021/04/02 05:09:43;;;;;;;9.15;4.97;;;;;;;;;;6216388;23;20624;-80
2021/04/02 05:12:09;;;;;;;7.88;5.13;;;;;;;;;;6216499;23;20431;-80
2021/04/02 05:14:36;;;;;;;10.00;5.25;;;;;;;;;;6215562;23;20013;-80
2021/04/02 05:17:02;;;;;;;9.45;5.90;;;;;;;;;;6213932;23;20000;-80
2021/04/02 05:19:27;;;;;;;8.05;5.40;;;;;;;;;;6216332;23;20011;-80
2021/04/02 05:21:53;;;;;;;10.50;6.10;;;;;;;;;;6213808;23;20004;-80
2021/04/02 05:24:20;;;;;;;11.55;5.18;;;;;;;;;;6213305;23;20503;-80
2021/04/02 05:26:46;;;;;;;11.30;5.55;;;;;;;;;;6215736;23;20005;-80
2021/04/02 05:29:12;;;;;;;9.88;5.65;;;;;;;;;;6215904;23;20023;-80
2021/04/02 05:31:38;;;;;;;8.38;5.15;;;;;;;;;;6216035;23;20489;-80
2021/04/02 05:34:03;;;;;;;8.15;5.90;;;;;;;;;;6215507;23;20031;-80
2021/04/02 05:38:47;;;;;;;11.48;6.65;;;;;;;;;;5116929;27;20380;-78
2021/04/02 05:41:14;;;;;;;9.90;5.40;;;;;;;;;;5118415;28;20382;-79
2021/04/02 05:43:46;;;;;;;9.02;5.82;;;;;;;;;;5117362;27;20055;-78
2021/04/02 05:46:13;;;;;;;8.23;5.88;;;;;;;;;;5106987;28;20023;-78
2021/04/02 05:48:40;;;;;;;8.10;5.32;;;;;;;;;;5124388;27;20035;-78
2021/04/02 05:51:06;;;;;;;11.10;5.50;;;;;;;;;;5116269;28;20062;-78
2021/04/02 05:53:33;;;;;;;8.25;5.28;;;;;;;;;;5120951;27;20027;-78
2021/04/02 05:56:00;;;;;;;9.80;6.57;;;;;;;;;;5115405;28;20085;-79
2021/04/02 05:58:27;;;;;;;9.07;6.03;;;;;;;;;;5118487;27;20379;-78
2021/04/02 06:00:53;;;;;;;8.90;6.32;;;;;;;;;;5114044;28;20031;-78
2021/04/02 06:05:39;;;;;;;10.75;5.80;;;;;;;;;;5128988;27;20431;-78
2021/04/02 06:08:05;;;;;;;9.38;6.60;;;;;;;;;;5108443;28;20028;-78
2021/04/02 06:10:31;;;;;;;10.52;7.00;;;;;;;;;;5104749;28;20054;-78
2021/04/02 06:12:57;;;;;;;10.43;5.88;;;;;;;;;;5109273;28;20027;-79
2021/04/02 06:15:23;;;;;;;9.07;6.68;;;;;;;;;;5105319;28;20456;-79
2021/04/02 06:18:05;;;;;;;9.20;6.50;;;;;;;;;;5099700;28;20038;-79
2021/04/02 06:20:33;;;;;;;9.70;7.03;;;;;;;;;;5102794;28;20548;-79
2021/04/02 06:23:06;;;;;;;9.02;6.18;;;;;;;;;;5097049;28;20403;-79
2021/04/02 06:25:32;;;;;;;9.48;6.60;;;;;;;;;;5098077;28;20022;-80
2021/04/02 06:27:58;;;;;;;8.60;6.18;;;;;;;;;;5099561;28;20020;-80
2021/04/02 06:32:44;;;;;;;11.52;6.88;;;;;;;;;;5094192;27;20424;-81
2021/04/02 06:35:10;;;;;;;12.50;6.22;;;;;;;;;;5094158;28;20043;-80
2021/04/02 06:37:36;;;;;;;11.77;6.25;;;;;;;;;;5099769;28;20146;-80
2021/04/02 06:40:09;;;;;;;9.23;6.03;;;;;;;;;;5090415;28;20031;-80
2021/04/02 06:42:34;;;;;;;10.07;6.15;;;;;;;;;;5091260;28;20040;-80
2021/04/02 06:45:01;;;;;;;9.23;6.30;;;;;;;;;;5095268;28;20020;-80
2021/04/02 06:47:33;;;;;;;8.75;5.38;;;;;;;;;;5096077;28;20027;-80
2021/04/02 06:49:59;;;;;;;9.65;5.75;;;;;;;;;;5097630;28;20016;-80
2021/04/02 06:52:25;;;;;;;9.43;7.18;;;;;;;;;;5093462;28;20478;-81
2021/04/02 06:54:51;;;;;;;11.60;6.72;;;;;;;;;;5096897;28;20035;-80
2021/04/02 06:57:17;;;;;;;8.85;5.90;;;;;;;;;;5095795;28;20043;-80
2021/04/02 06:59:43;;;;;;;8.65;6.18;;;;;;;;;;5098316;28;20452;-80
2021/04/02 07:02:11;;;;;;;9.85;6.72;;;;;;;;;;5093431;28;20026;-80
2021/04/02 07:04:38;;;;;;;8.80;6.10;;;;;;;;;;5094127;28;20078;-80
2021/04/02 07:07:05;;;;;;;7.78;5.95;;;;;;;;;;5096729;28;20439;-80
2021/04/02 07:09:32;;;;;;;9.70;6.55;;;;;;;;;;5097726;28;20079;-80
2021/04/02 07:12:01;;;;;;;9.23;6.57;;;;;;;;;;5099047;28;20507;-80
2021/04/02 07:14:27;;;;;;;12.48;5.80;;;;;;;;;;5094335;28;20097;-80
2021/04/02 07:16:54;;;;;;;12.38;5.80;;;;;;;;;;5094800;28;20023;-80
2021/04/02 07:19:20;;;;;;;10.75;6.47;;;;;;;;;;5092159;28;20017;-81
2021/04/02 07:21:49;;;;;;;13.55;7.30;;;;;;;;;;5094011;28;20039;-81
2021/04/02 07:24:16;;;;;;;10.35;6.47;;;;;;;;;;5091915;28;20472;-81
2021/04/02 07:26:42;;;;;;;11.32;6.38;;;;;;;;;;5094982;28;20491;-82
2021/04/02 07:29:08;;;;;;;9.85;5.88;;;;;;;;;;5093742;28;20051;-81
2021/04/02 07:31:34;;;;;;;10.82;5.78;;;;;;;;;;5094903;28;20029;-81
2021/04/02 07:34:00;;;;;;;10.68;5.63;;;;;;;;;;5094000;28;20028;-83
2021/04/02 07:36:26;;;;;;;9.15;5.95;;;;;;;;;;5095185;28;20395;-83
2021/04/02 07:38:53;;;;;;;9.88;6.82;;;;;;;;;;5094699;28;20103;-83
2021/04/02 07:41:19;;;;;;;10.20;6.53;;;;;;;;;;5090293;28;20050;-84
2021/04/02 07:43:51;;;;;;;9.82;5.88;;;;;;;;;;5082344;28;20048;-83
2021/04/02 07:48:35;;;;;;;8.32;5.80;;;;;;;;;;5101579;27;20356;-83
2021/04/02 07:51:01;;;;;;;7.38;5.18;;;;;;;;;;5101268;28;20069;-82
2021/04/02 07:53:27;;;;;;;8.40;5.22;;;;;;;;;;5102802;28;20024;-82
2021/04/02 07:55:56;;;;;;;9.40;6.05;;;;;;;;;;5098636;28;20052;-82
2021/04/02 07:58:27;;;;;;;7.70;5.22;;;;;;;;;;5104750;28;20020;-82
2021/04/02 08:00:54;;;;;;;8.15;5.53;;;;;;;;;;5105418;28;20054;-81
2021/04/02 08:03:23;;;;;;;9.57;5.28;;;;;;;;;;5105215;28;20461;-82
2021/04/02 08:05:55;;;;;;;9.68;5.78;;;;;;;;;;5104550;28;20157;-82
2021/04/02 08:08:23;;;;;;;7.10;5.28;;;;;;;;;;5100983;28;20016;-82
2021/04/02 08:11:09;;;;;;;7.15;4.55;;;;;;;;;;5104875;28;20028;-82
2021/04/02 08:13:48;;;;;;;7.50;5.43;;;;;;;;;;5103813;28;20030;-82
2021/04/02 08:16:26;;;;;;;8.15;5.45;;;;;;;;;;5101629;28;20021;-82
2021/04/02 08:19:12;;;;;;;8.15;5.65;;;;;;;;;;5102678;28;20032;-82
2021/04/02 08:21:38;;;;;;;6.97;5.03;;;;;;;;;;5099062;28;20063;-82
2021/04/02 08:24:05;;;;;;;8.32;5.07;;;;;;;;;;5096734;28;20024;-82
2021/04/02 08:26:32;;;;;;;8.10;5.88;;;;;;;;;;5104980;28;20027;-82
2021/04/02 08:29:02;;;;;;;6.78;4.45;;;;;;;;;;5108285;28;20051;-81
2021/04/02 08:31:28;;;;;;;6.72;4.90;;;;;;;;;;5106619;28;20020;-83
2021/04/02 08:33:57;;;;;;;9.57;5.93;;;;;;;;;;5099796;28;20406;-79
2021/04/02 08:36:23;;;;;;;8.07;4.75;;;;;;;;;;5095603;28;20035;-80
2021/04/02 08:38:50;;;;;;;7.07;5.35;;;;;;;;;;5098555;28;20028;-81
2021/04/02 08:41:23;;;;;;;6.03;4.80;;;;;;;;;;5095948;28;20034;-81
2021/04/02 08:43:50;;;;;;;8.13;5.25;;;;;;;;;;5098179;28;20016;-81
2021/04/02 08:46:16;;;;;;;6.72;5.20;;;;;;;;;;5101836;28;20023;-81
2021/04/02 08:48:44;;;;;;;7.10;4.88;;;;;;;;;;5097265;28;20023;-81
2021/04/02 08:51:17;;;;;;;7.07;4.72;;;;;;;;;;5104623;28;20060;-81
2021/04/02 08:53:43;;;;;;;7.20;5.32;;;;;;;;;;5101562;28;20066;-81
2021/04/02 08:56:14;;;;;;;9.32;4.97;;;;;;;;;;5106499;28;20102;-81
2021/04/02 08:58:41;;;;;;;6.43;5.10;;;;;;;;;;5100841;28;20057;-81
2021/04/02 09:01:07;;;;;;;7.40;5.30;;;;;;;;;;5093753;28;20029;-81
2021/04/02 09:03:32;;;;;;;8.93;5.40;;;;;;;;;;5092558;28;20055;-81
2021/04/02 09:05:58;;;;;;;7.10;5.20;;;;;;;;;;5087563;28;20423;-81
2021/04/02 09:08:24;;;;;;;6.78;4.78;;;;;;;;;;5086191;28;20016;-81
2021/04/02 09:10:49;;;;;;;6.95;4.70;;;;;;;;;;5086931;28;20028;-81
2021/04/02 09:13:15;;;;;;;7.22;4.55;;;;;;;;;;5089254;28;20060;-81
2021/04/02 09:15:46;;;;;;;6.10;4.57;;;;;;;;;;5093160;28;20024;-81
2021/04/02 09:18:15;;;;;;;7.70;4.85;;;;;;;;;;5085004;28;20024;-81
2021/04/02 09:22:59;;;;;;;7.10;4.63;;;;;;;;;;5097629;28;20697;-84
2021/04/02 09:25:25;;;;;;;9.18;5.28;;;;;;;;;;5093295;28;20032;-81
2021/04/02 09:27:51;;;;;;;7.35;5.32;;;;;;;;;;5092287;28;20074;-81
2021/04/02 09:30:26;;;;;;;5.35;4.03;;;;;;;;;;5090723;28;20104;-82
2021/04/02 09:32:52;;;;;;;6.65;4.72;;;;;;;;;;5088458;28;20043;-81
2021/04/02 09:35:18;;;;;;;6.88;4.88;;;;;;;;;;5088496;28;20025;-81
2021/04/02 09:37:44;;;;;;;8.93;5.13;;;;;;;;;;5065973;28;20037;-80
2021/04/02 09:40:09;;;;;;;7.10;4.25;;;;;;;;;;5096270;28;20031;-80
2021/04/02 09:42:36;;;;;;;5.45;4.00;;;;;;;;;;5079911;28;20011;-80
2021/04/02 09:45:03;;;;;;;6.45;4.55;;;;;;;;;;5100228;28;20508;-80
2021/04/02 09:47:29;;;;;;;7.60;4.75;;;;;;;;;;5096565;28;20097;-81
2021/04/02 09:49:55;;;;;;;6.45;4.35;;;;;;;;;;5103419;28;20020;-80
2021/04/02 09:52:21;;;;;;;8.75;4.97;;;;;;;;;;5094165;28;20024;-80
2021/04/02 09:54:47;;;;;;;5.95;4.25;;;;;;;;;;5091673;28;20051;-80
2021/04/02 09:57:12;;;;;;;5.07;3.97;;;;;;;;;;5090760;28;20020;-80
2021/04/02 09:59:38;;;;;;;5.65;4.15;;;;;;;;;;5088694;28;20024;-81
2021/04/02 10:02:04;;;;;;;5.80;3.90;;;;;;;;;;5087861;28;20025;-81
2021/04/02 10:04:30;;;;;;;8.30;4.38;;;;;;;;;;5093907;28;20069;-81
2021/04/02 10:06:56;;;;;;;6.53;4.32;;;;;;;;;;5086396;28;20028;-81
2021/04/02 10:09:21;;;;;;;5.18;3.63;;;;;;;;;;5063906;28;20020;-81
2021/04/02 10:11:49;;;;;;;5.50;3.83;;;;;;;;;;5062962;28;20051;-78
2021/04/02 10:14:15;;;;;;;5.35;4.10;;;;;;;;;;5082612;28;20504;-81
2021/04/02 10:16:41;;;;;;;6.63;3.83;;;;;;;;;;5088244;28;20024;-81
2021/04/02 10:19:07;;;;;;;9.77;5.38;;;;;;;;;;5087354;28;20526;-81
2021/04/02 10:21:33;;;;;;;8.05;4.57;;;;;;;;;;5081101;28;20079;-81
2021/04/02 10:23:59;;;;;;;6.75;4.13;;;;;;;;;;5089737;28;20028;-81
2021/04/02 10:26:25;;;;;;;5.05;3.20;;;;;;;;;;5090015;28;20019;-81
2021/04/02 10:28:51;;;;;;;5.50;3.75;;;;;;;;;;5083190;28;20013;-80
2021/04/02 10:31:16;;;;;;;5.65;4.10;;;;;;;;;;5104031;28;20110;-81
2021/04/02 10:33:43;;;;;;;7.57;4.10;;;;;;;;;;5064606;28;20037;-81
2021/04/02 10:36:08;;;;;;;6.15;3.88;;;;;;;;;;5056812;28;20024;-81
2021/04/02 10:38:34;;;;;;;4.95;3.28;;;;;;;;;;5084369;28;20024;-81
2021/04/02 10:41:00;;;;;;;5.85;3.72;;;;;;;;;;5079196;28;20075;-81
2021/04/02 10:43:26;;;;;;;5.65;3.90;;;;;;;;;;5068015;28;20025;-81
2021/04/02 10:45:51;;;;;;;5.20;4.25;;;;;;;;;;5065039;28;20032;-81
2021/04/02 10:48:17;;;;;;;5.10;3.92;;;;;;;;;;5069058;28;20021;-80
2021/04/02 10:50:43;;;;;;;6.50;3.58;;;;;;;;;;5076647;28;20021;-81
2021/04/02 10:53:09;;;;;;;7.95;4.15;;;;;;;;;;5072599;28;20472;-81
2021/04/02 10:55:35;;;;;;;6.53;3.88;;;;;;;;;;5070450;28;20024;-81
2021/04/02 10:58:04;;;;;;;6.95;3.90;;;;;;;;;;5079793;22;20115;-83
2021/04/02 11:00:30;;;;;;;8.38;3.65;;;;;;;;;;5074499;28;20040;-84
2021/04/02 11:02:56;;;;;;;5.68;3.58;;;;;;;;;;5058962;28;20678;-85
2021/04/02 11:05:21;;;;;;;5.35;3.67;;;;;;;;;;5058390;28;20080;-83
2021/04/02 11:07:47;;;;;;;6.15;4.35;;;;;;;;;;5056907;28;20369;-83
2021/04/02 11:10:13;;;;;;;5.32;3.47;;;;;;;;;;5073913;28;20025;-84
2021/04/02 11:12:39;;;;;;;6.88;4.13;;;;;;;;;;5074388;28;20029;-84
2021/04/02 11:15:06;;;;;;;6.38;4.13;;;;;;;;;;5075811;28;20028;-84
2021/04/02 11:17:32;;;;;;;4.70;3.38;;;;;;;;;;5075165;28;20103;-83
2021/04/02 11:19:58;;;;;;;4.85;3.30;;;;;;;;;;5072892;28;20097;-83
2021/04/02 11:22:24;;;;;;;4.82;3.25;;;;;;;;;;5076418;28;20055;-83
2021/04/02 11:24:52;;;;;;;5.40;4.05;;;;;;;;;;5072136;28;20025;-83
2021/04/02 11:27:17;;;;;;;6.97;3.95;;;;;;;;;;5074689;28;20427;-84
2021/04/02 11:29:43;;;;;;;5.55;3.63;;;;;;;;;;5078225;28;20021;-84
2021/04/02 11:32:09;;;;;;;5.85;4.03;;;;;;;;;;5074405;28;20024;-83
2021/04/02 11:34:35;;;;;;;4.15;3.20;;;;;;;;;;5076417;28;20028;-84
2021/04/02 11:37:01;;;;;;;5.00;3.53;;;;;;;;;;5072703;28;20024;-83
2021/04/02 11:39:27;;;;;;;5.10;3.40;;;;;;;;;;5070760;28;20594;-83
2021/04/02 11:41:53;;;;;;;5.25;2.97;;;;;;;;;;5072106;28;20024;-83
2021/04/02 11:44:19;;;;;;;4.45;3.28;;;;;;;;;;5073389;28;20008;-83
2021/04/02 11:46:45;;;;;;;5.60;3.83;;;;;;;;;;5067913;28;20077;-82
2021/04/02 11:49:11;;;;;;;4.40;3.33;;;;;;;;;;5073861;28;20028;-83
2021/04/02 11:51:37;;;;;;;8.07;4.50;;;;;;;;;;5072844;28;20068;-83
2021/04/02 11:54:02;;;;;;;5.18;3.00;;;;;;;;;;5069985;28;20024;-83
2021/04/02 11:56:28;;;;;;;4.40;3.13;;;;;;;;;;5067796;28;20125;-84
2021/04/02 11:58:54;;;;;;;5.13;3.38;;;;;;;;;;5066550;28;20031;-83
2021/04/02 12:01:20;;;;;;;3.92;3.03;;;;;;;;;;5070430;28;20031;-83
2021/04/02 12:03:46;;;;;;;4.35;2.72;;;;;;;;;;5069907;28;20027;-83
2021/04/02 12:06:11;;;;;;;5.05;3.35;;;;;;;;;;5067171;28;20465;-83
2021/04/02 12:08:37;;;;;;;5.78;3.28;;;;;;;;;;5067926;28;20096;-83
2021/04/02 12:11:03;;;;;;;5.22;3.03;;;;;;;;;;5066882;28;20025;-84
2021/04/02 12:13:28;;;;;;;4.60;3.50;;;;;;;;;;5069630;28;20033;-82
2021/04/02 12:15:54;;;;;;;8.82;3.65;;;;;;;;;;5067374;28;20115;-83
2021/04/02 12:18:20;;;;;;;4.45;3.33;;;;;;;;;;5065540;28;20032;-83
2021/04/02 12:20:46;;;;;;;6.90;3.58;;;;;;;;;;5070017;28;20025;-83
2021/04/02 12:23:11;;;;;;;4.93;3.03;;;;;;;;;;5070588;28;20033;-84
2021/04/02 12:25:37;;;;;;;5.20;3.03;;;;;;;;;;5071914;28;20027;-84
2021/04/02 12:28:03;;;;;;;4.03;2.38;;;;;;;;;;5067189;28;20404;-83
2021/04/02 12:30:29;;;;;;;5.13;3.10;;;;;;;;;;5072768;28;20137;-84
2021/04/02 12:32:54;;;;;;;5.07;2.90;;;;;;;;;;5072178;28;20024;-84
2021/04/02 12:35:20;;;;;;;4.65;3.10;;;;;;;;;;5069341;28;20025;-84
2021/04/02 12:37:46;;;;;;;5.47;3.42;;;;;;;;;;5068226;28;20021;-84
2021/04/02 12:40:14;;;;;;;5.40;3.35;;;;;;;;;;5073218;28;20039;-84
2021/04/02 12:42:40;;;;;;;6.05;3.70;;;;;;;;;;5072186;28;20115;-83
2021/04/02 12:45:07;;;;;;;4.32;3.28;;;;;;;;;;5069726;28;20035;-84
2021/04/02 12:47:33;;;;;;;5.35;2.60;;;;;;;;;;5066802;28;20066;-84
2021/04/02 12:49:59;;;;;;;5.18;3.10;;;;;;;;;;5064102;28;20029;-84
2021/04/02 12:52:24;;;;;;;5.30;3.33;;;;;;;;;;5074494;28;20013;-84
2021/04/02 12:54:50;;;;;;;6.65;4.10;;;;;;;;;;5071395;28;20391;-85
2021/04/02 12:57:16;;;;;;;4.93;3.25;;;;;;;;;;5073764;28;20032;-84
2021/04/02 12:59:41;;;;;;;4.10;3.05;;;;;;;;;;5070774;28;20032;-84
2021/04/02 13:02:07;;;;;;;5.50;4.07;;;;;;;;;;5072169;28;20050;-84
2021/04/02 13:04:33;;;;;;;6.72;4.18;;;;;;;;;;5070776;28;20074;-84
2021/04/02 13:06:59;;;;;;;6.15;3.80;;;;;;;;;;5069587;28;20017;-84
2021/04/02 13:09:25;;;;;;;5.78;3.83;;;;;;;;;;5071517;28;20488;-84
2021/04/02 13:11:50;;;;;;;7.07;3.70;;;;;;;;;;5073379;28;20031;-84
2021/04/02 13:14:16;;;;;;;6.82;3.63;;;;;;;;;;5075704;28;20103;-83
2021/04/02 13:16:42;;;;;;;4.63;3.45;;;;;;;;;;5076450;28;20039;-85
2021/04/02 13:19:08;;;;;;;6.40;3.45;;;;;;;;;;5071314;28;20052;-86
2021/04/02 13:21:34;;;;;;;5.88;3.25;;;;;;;;;;5077745;28;20025;-85
2021/04/02 13:24:00;;;;;;;9.57;3.63;;;;;;;;;;5069618;28;20036;-85
2021/04/02 13:26:25;;;;;;;5.45;2.88;;;;;;;;;;5075890;28;20025;-86
2021/04/02 13:28:51;;;;;;;5.07;3.83;;;;;;;;;;5079214;28;20116;-85
2021/04/02 13:31:17;;;;;;;4.97;2.97;;;;;;;;;;5079155;28;20020;-85
2021/04/02 13:33:42;;;;;;;4.38;3.10;;;;;;;;;;5079040;28;20025;-85
2021/04/02 13:36:08;;;;;;;5.10;3.67;;;;;;;;;;5072682;28;20123;-84
2021/04/02 13:38:34;;;;;;;5.45;3.80;;;;;;;;;;5079745;28;20028;-86
2021/04/02 13:40:59;;;;;;;5.22;3.72;;;;;;;;;;5080586;28;20067;-86
2021/04/02 13:43:26;;;;;;;7.32;3.97;;;;;;;;;;5076150;28;20019;-85
2021/04/02 13:45:51;;;;;;;4.95;3.90;;;;;;;;;;5079621;28;20024;-85
2021/04/02 13:48:17;;;;;;;5.50;3.33;;;;;;;;;;5080600;28;20047;-84
2021/04/02 13:50:43;;;;;;;6.47;3.42;;;;;;;;;;5081374;28;20299;-85
2021/04/02 13:53:08;;;;;;;5.15;4.13;;;;;;;;;;5071698;28;20365;-85
2021/04/02 13:55:34;;;;;;;7.00;3.97;;;;;;;;;;5075485;28;20015;-86
2021/04/02 13:58:00;;;;;;;6.25;4.30;;;;;;;;;;5080179;28;20028;-87
2021/04/02 14:00:27;;;;;;;5.88;4.00;;;;;;;;;;5068026;28;20029;-84
2021/04/02 14:02:52;;;;;;;5.07;2.88;;;;;;;;;;5077028;28;20024;-86
2021/04/02 14:05:19;;;;;;;5.85;4.30;;;;;;;;;;5079654;28;20021;-85
2021/04/02 14:07:45;;;;;;;7.00;4.35;;;;;;;;;;5076322;28;20384;-86
2021/04/02 14:12:29;;;;;;;6.78;4.25;;;;;;;;;;5098810;27;20352;-83
2021/04/02 14:14:55;;;;;;;8.75;4.10;;;;;;;;;;5078166;28;20027;-83
2021/04/02 14:17:21;;;;;;;6.07;3.40;;;;;;;;;;5086902;28;20414;-83
2021/04/02 14:19:47;;;;;;;6.35;3.75;;;;;;;;;;5081109;28;20395;-83
2021/04/02 14:22:13;;;;;;;10.55;6.55;;;;;;;;;;5085959;28;20070;-83
2021/04/02 14:24:40;;;;;;;8.10;5.25;;;;;;;;;;5078450;28;20024;-82
2021/04/02 14:27:06;;;;;;;9.02;4.97;;;;;;;;;;5082942;28;20032;-83
2021/04/02 14:29:32;;;;;;;6.55;4.10;;;;;;;;;;5088954;28;20029;-83
2021/04/02 14:31:57;;;;;;;6.47;4.30;;;;;;;;;;5091858;28;20051;-83
2021/04/02 14:34:23;;;;;;;5.68;4.03;;;;;;;;;;5088466;28;20122;-83
2021/04/02 14:36:49;;;;;;;6.72;4.82;;;;;;;;;;5082881;28;20034;-86
2021/04/02 14:39:15;;;;;;;5.35;3.97;;;;;;;;;;5084410;28;20396;-82
2021/04/02 14:41:41;;;;;;;9.32;4.63;;;;;;;;;;5090575;28;20020;-83
2021/04/02 14:44:07;;;;;;;6.20;4.38;;;;;;;;;;5087919;28;20084;-83
2021/04/02 14:46:32;;;;;;;7.80;4.72;;;;;;;;;;5091425;28;20020;-82
2021/04/02 14:48:58;;;;;;;6.32;4.35;;;;;;;;;;5092691;28;20025;-83
2021/04/02 14:51:24;;;;;;;5.80;3.92;;;;;;;;;;5082598;28;20017;-84
2021/04/02 14:53:49;;;;;;;5.45;4.28;;;;;;;;;;5077373;28;20427;-83
2021/04/02 14:56:15;;;;;;;7.05;4.68;;;;;;;;;;5090267;28;20027;-81
2021/04/02 14:58:43;;;;;;;7.00;4.00;;;;;;;;;;5090646;28;20103;-83
2021/04/02 15:01:11;;;;;;;7.63;4.25;;;;;;;;;;5078227;28;20032;-83
2021/04/02 15:03:38;;;;;;;5.90;4.15;;;;;;;;;;5086288;28;20133;-83
2021/04/02 15:06:04;;;;;;;9.38;6.00;;;;;;;;;;5085995;28;20029;-84
2021/04/02 15:08:29;;;;;;;6.22;4.75;;;;;;;;;;5081621;28;20012;-84
2021/04/02 15:10:55;;;;;;;5.82;4.30;;;;;;;;;;5086847;28;20035;-83
2021/04/02 15:13:21;;;;;;;10.00;4.53;;;;;;;;;;5080975;28;20024;-86
2021/04/02 15:15:46;;;;;;;6.13;4.63;;;;;;;;;;5079612;28;20537;-86
2021/04/02 15:18:12;;;;;;;6.22;4.20;;;;;;;;;;5079901;28;20555;-85
2021/04/02 15:20:39;;;;;;;5.85;3.90;;;;;;;;;;5078352;28;20182;-84
2021/04/02 15:23:06;;;;;;;7.95;4.40;;;;;;;;;;5067214;28;20024;-85
2021/04/02 15:25:32;;;;;;;6.00;4.03;;;;;;;;;;5063143;28;20025;-85
2021/04/02 15:27:57;;;;;;;5.88;4.18;;;;;;;;;;5075806;28;20737;-84
2021/04/02 15:30:23;;;;;;;8.77;4.30;;;;;;;;;;5066362;28;20033;-83
2021/04/02 15:32:49;;;;;;;7.43;4.18;;;;;;;;;;5070080;28;20029;-85
2021/04/02 15:35:17;;;;;;;6.22;3.78;;;;;;;;;;5065432;28;20078;-85
2021/04/02 15:37:44;;;;;;;5.65;4.00;;;;;;;;;;5070918;28;20077;-85
2021/04/02 15:40:10;;;;;;;7.93;4.25;;;;;;;;;;5069793;28;20020;-85
2021/04/02 15:42:36;;;;;;;5.72;3.70;;;;;;;;;;5073839;28;20028;-84
2021/04/02 15:45:02;;;;;;;7.32;3.80;;;;;;;;;;5067683;28;20103;-85
2021/04/02 15:47:27;;;;;;;6.03;3.10;;;;;;;;;;5054245;28;20029;-84
2021/04/02 15:49:54;;;;;;;7.93;3.08;;;;;;;;;;5064649;28;20147;-85
2021/04/02 15:52:20;;;;;;;7.22;3.78;;;;;;;;;;5063187;28;20091;-84
2021/04/02 15:54:45;;;;;;;5.65;3.08;;;;;;;;;;5063131;28;20025;-84
2021/04/02 15:57:11;;;;;;;6.90;3.47;;;;;;;;;;5067816;28;20023;-84
2021/04/02 15:59:37;;;;;;;5.35;3.25;;;;;;;;;;5065232;28;20020;-84
2021/04/02 16:02:03;;;;;;;8.52;3.70;;;;;;;;;;5071961;28;20099;-84
2021/04/02 16:04:30;;;;;;;5.93;3.20;;;;;;;;;;5062244;28;20024;-84
2021/04/02 16:06:55;;;;;;;5.82;3.30;;;;;;;;;;5066660;28;20481;-84
2021/04/02 16:09:21;;;;;;;4.72;3.00;;;;;;;;;;5067576;28;20037;-85
2021/04/02 16:11:46;;;;;;;6.40;3.60;;;;;;;;;;5073175;28;20473;-87
2021/04/02 16:14:12;;;;;;;7.22;4.22;;;;;;;;;;5061119;28;20031;-87
2021/04/02 16:16:40;;;;;;;6.47;3.78;;;;;;;;;;5056855;28;20036;-87
2021/04/02 16:19:06;;;;;;;5.43;3.90;;;;;;;;;;5058096;28;20038;-86
2021/04/02 16:21:32;;;;;;;5.00;3.53;;;;;;;;;;5061302;28;20111;-87
2021/04/02 16:46:43;;;;;;;;;;;;;;;;;;4993589;28;20042;-86
2021/04/02 16:54:33;;;;;;;6.13;4.10;;;;;;;;;;5205102;22;20518;-85
2021/04/02 16:56:59;;;;;;;11.05;5.72;;;;;;;;;;5014778;28;20092;-86
2021/04/02 16:59:25;;;;;;;5.38;3.70;;;;;;;;;;5016958;28;20034;-86
2021/04/02 17:01:51;;;;;;;5.80;3.38;;;;;;;;;;5014400;28;20026;-86
2021/04/02 17:04:16;;;;;;;5.50;2.92;;;;;;;;;;5018510;28;20021;-84
2021/04/02 17:06:42;;;;;;;5.28;3.63;;;;;;;;;;5021900;28;20393;-87
2021/04/02 17:09:08;;;;;;;4.97;3.38;;;;;;;;;;5009920;28;20409;-85
2021/04/02 17:11:34;;;;;;;9.27;5.10;;;;;;;;;;5018182;28;20072;-86
2021/04/02 17:14:00;;;;;;;6.30;3.40;;;;;;;;;;5011819;28;20021;-85
2021/04/02 17:16:27;;;;;;;6.35;3.35;;;;;;;;;;5013568;28;20086;-86
2021/04/02 17:19:17;;;;;;;7.38;3.72;;;;;;;;;;5015266;28;20053;-86
2021/04/02 17:21:59;;;;;;;4.78;3.00;;;;;;;;;;5020546;28;20049;-85
2021/04/02 17:24:24;;;;;;;;;;;;;;;;;;5006666;28;20042;-85
2021/04/02 17:26:50;;;;;;;4.72;2.97;;;;;;;;;;5010219;28;19913;-85
2021/04/02 17:29:30;;;;;;;6.43;4.53;;;;;;;;;;5015229;28;20029;-85
2021/04/02 17:32:03;;;;;;;7.57;3.80;;;;;;;;;;5007496;28;20038;-85
2021/04/02 17:34:54;;;;;;;5.85;3.63;;;;;;;;;;5012099;28;20037;-85
2021/04/02 17:37:52;;;;;;;5.28;3.10;;;;;;;;;;5014149;28;20048;-86
2021/04/02 17:40:54;;;;;;;4.50;3.00;;;;;;;;;;5005641;28;20026;-86
2021/04/02 17:43:44;;;;;;;4.20;2.38;;;;;;;;;;4980480;28;20034;-86
2021/04/02 17:50:05;;;;;;;;;;;;;;;;;;;;;
2021/04/02 17:56:00;;;;;;;3.83;2.03;;;;;;;;;;4995668;28;20048;-85
2021/04/02 18:01:00;;;;;;;4.40;2.28;;;;;;;;;;4968852;28;20038;-85
2021/04/02 18:04:18;;;;;;;4.13;2.08;;;;;;;;;;4969772;28;20057;-85
2021/04/02 18:13:31;;;;;;;;;;;;;;;;;;;;;
2021/04/02 18:16:06;;;;;;;4.72;2.58;;;;;;;;;;4920062;29;20086;-84
2021/04/02 18:18:32;;;;;;;2.90;1.70;;;;;;;;;;4935024;28;20058;-85
2021/04/02 18:20:57;;;;;;;3.22;1.70;;;;;;;;;;4974512;28;20054;-85
2021/04/02 18:23:23;;;;;;;3.92;1.88;;;;;;;;;;4970664;28;20034;-85
2021/04/02 18:25:49;;;;;;;3.70;1.60;;;;;;;;;;4966616;28;20574;-84
2021/04/02 18:37:09;;;;;;;3.75;1.55;;;;;;;;;;4870922;28;6411882;-85
2021/04/02 18:39:34;;;;;;;3.75;1.90;;;;;;;;;;5081713;28;20020;-85
2021/04/02 18:42:01;;;;;;;4.40;2.60;;;;;;;;;;5087636;28;20066;-86
2021/04/02 18:44:26;;;;;;;6.97;1.80;;;;;;;;;;5096053;28;20624;-85
2021/04/02 18:46:52;;;;;;;3.85;1.88;;;;;;;;;;5086299;28;20012;-86
2021/04/02 18:49:18;;;;;;;5.28;2.53;;;;;;;;;;5071289;28;20016;-85
2021/04/02 18:51:45;;;;;;;6.32;2.92;;;;;;;;;;5062751;28;20021;-85
2021/04/02 18:54:11;;;;;;;10.68;5.00;;;;;;;;;;5083187;28;20020;-85
2021/04/02 18:56:37;;;;;;;10.57;5.13;;;;;;;;;;5067779;28;20111;-83
2021/04/02 18:59:03;;;;;;;8.93;4.88;;;;;;;;;;5071842;28;20028;-84
2021/04/02 19:01:28;;;;;;;9.20;5.30;;;;;;;;;;5089978;28;20034;-84
2021/04/02 19:03:54;;;;;;;10.70;5.28;;;;;;;;;;5068926;28;20500;-84
2021/04/02 19:06:20;;;;;;;10.20;6.60;;;;;;;;;;5064096;28;20062;-83
2021/04/02 19:08:46;;;;;;;11.70;7.25;;;;;;;;;;5070094;28;20024;-83
2021/04/02 19:11:12;;;;;;;15.25;7.68;;;;;;;;;;5090740;28;20015;-83
2021/04/02 19:13:38;;;;;;;12.77;7.97;;;;;;;;;;5066629;28;20028;-83
2021/04/02 19:16:04;;;;;;;15.50;7.72;;;;;;;;;;5068552;28;20472;-83
2021/04/02 19:18:48;;;;;;;15.23;8.20;;;;;;;;;;5069329;28;20024;-84
2021/04/02 19:21:14;;;;;;;12.25;7.40;;;;;;;;;;5070045;28;20106;-83
2021/04/02 19:23:40;;;;;;;15.30;8.88;;;;;;;;;;5084698;28;20472;-84
2021/04/02 19:26:06;;;;;;;19.35;11.38;;;;;;;;;;5067577;28;20021;-83
2021/04/02 19:28:31;;;;;;;16.23;9.32;;;;;;;;;;5083953;28;20028;-84
2021/04/02 19:30:58;;;;;;;17.10;10.98;;;;;;;;;;5090164;28;20479;-83
2021/04/02 19:33:24;;;;;;;19.52;10.32;;;;;;;;;;5065634;28;20039;-83
2021/04/02 19:35:49;;;;;;;18.65;11.05;;;;;;;;;;5069706;28;20044;-83
2021/04/02 19:38:15;;;;;;;19.60;12.63;;;;;;;;;;5067944;28;20024;-83
2021/04/02 19:40:41;;;;;;;18.80;12.93;;;;;;;;;;5062584;28;20472;-84
2021/04/02 19:43:07;;;;;;;21.50;13.90;;;;;;;;;;5078327;28;20038;-83
2021/04/02 19:45:33;;;;;;;20.45;14.80;;;;;;;;;;5076844;28;20085;-83
2021/04/02 19:47:59;;;;;;;24.10;13.95;;;;;;;;;;5057803;28;20776;-82
2021/04/02 19:50:26;;;;;;;23.33;13.15;;;;;;;;;;5056276;28;20033;-83
2021/04/02 19:52:51;;;;;;;26.58;14.68;;;;;;;;;;5059847;28;20025;-82
2021/04/02 19:55:18;;;;;;;21.42;13.25;;;;;;;;;;5077095;28;20073;-82
2021/04/02 19:57:44;;;;;;;24.08;13.80;;;;;;;;;;5079015;28;20036;-82
2021/04/02 20:00:12;;;;;;;24.10;13.57;;;;;;;;;;5075951;28;20028;-82
2021/04/02 20:02:38;;;;;;;25.50;15.20;;;;;;;;;;5069646;28;20111;-82
2021/04/02 20:05:04;;;;;;;22.77;14.40;;;;;;;;;;5058094;28;20031;-82
2021/04/02 20:07:30;;;;;;;23.48;15.15;;;;;;;;;;5046970;28;20122;-82
2021/04/02 20:09:56;;;;;;;24.35;15.43;;;;;;;;;;5058477;28;20029;-82
2021/04/02 20:12:22;;;;;;;26.85;16.48;;;;;;;;;;5072416;28;20099;-82
2021/04/02 20:14:47;;;;;;;26.10;16.13;;;;;;;;;;5049505;28;20027;-82
2021/04/02 20:17:13;;;;;;;27.00;17.10;;;;;;;;;;5052960;28;20048;-82
2021/04/02 20:19:39;;;;;;;29.67;18.52;;;;;;;;;;5064014;28;20031;-82
2021/04/02 20:22:04;;;;;;;25.40;16.63;;;;;;;;;;5058489;28;20026;-82
2021/04/02 20:24:30;;;;;;;28.45;16.73;;;;;;;;;;5071706;28;20067;-82
2021/04/02 20:26:56;;;;;;;34.20;19.00;;;;;;;;;;5062463;28;20036;-82
2021/04/02 20:29:21;;;;;;;29.42;17.67;;;;;;;;;;5073030;28;20059;-82
2021/04/02 20:31:47;;;;;;;30.85;19.17;;;;;;;;;;5077899;28;20496;-82